createdAt,value
2023-04-12T00:00:22.893Z,14.70
2023-04-12T00:02:54.356Z,14.60
2023-04-12T00:05:26.342Z,14.00
2023-04-12T00:07:56.346Z,13.70
2023-04-12T00:10:26.587Z,14.10
2023-04-12T00:12:56.359Z,14.30
2023-04-12T00:15:25.966Z,14.40
2023-04-12T00:17:56.599Z,14.40
2023-04-12T00:20:27.886Z,14.50
2023-04-12T00:22:57.750Z,14.50
2023-04-12T00:25:28.922Z,14.50
2023-04-12T00:27:59.427Z,14.40
2023-04-12T00:30:29.676Z,14.30
2023-04-12T00:33:00.400Z,14.30
2023-04-12T00:35:30.555Z,14.20
2023-04-12T00:38:00.124Z,14.30
2023-04-12T00:40:29.577Z,14.30
2023-04-12T00:42:59.329Z,13.80
2023-04-12T00:45:28.939Z,13.20
2023-04-12T00:47:58.598Z,13.40
2023-04-12T00:50:29.016Z,13.80
2023-04-12T00:53:00.146Z,13.90
2023-04-12T00:55:29.763Z,14.10
2023-04-12T00:58:00.166Z,14.20
2023-04-12T01:00:29.951Z,14.10
2023-04-12T01:03:01.409Z,14.10
2023-04-12T01:05:33.927Z,14.00
2023-04-12T01:08:16.369Z,14.00
2023-04-12T01:10:49.427Z,14.10
2023-04-12T01:13:25.845Z,14.10
2023-04-12T01:16:09.927Z,14.00
2023-04-12T01:18:41.777Z,13.70
2023-04-12T01:21:17.279Z,13.20
2023-04-12T01:24:06.710Z,12.90
2023-04-12T01:26:49.783Z,12.80
2023-04-12T01:29:26.455Z,13.10
2023-04-12T01:32:06.290Z,13.40
2023-04-12T01:34:38.960Z,13.50
2023-04-12T01:37:11.052Z,13.60
2023-04-12T01:39:41.652Z,13.60
2023-04-12T01:42:11.138Z,13.30
2023-04-12T01:44:40.704Z,12.90
2023-04-12T01:47:10.242Z,12.50
2023-04-12T01:49:43.015Z,13.00
2023-04-12T01:52:15.493Z,13.20
2023-04-12T01:54:48.086Z,13.30
2023-04-12T01:57:19.598Z,13.40
2023-04-12T01:59:52.468Z,13.50
2023-04-12T02:02:22.918Z,13.50
2023-04-12T02:04:55.538Z,13.40
2023-04-12T02:07:25.146Z,13.40
2023-04-12T02:09:54.620Z,13.40
2023-04-12T02:12:25.470Z,13.40
2023-04-12T02:14:57.219Z,13.40
2023-04-12T02:17:27.314Z,13.10
2023-04-12T02:19:58.886Z,13.20
2023-04-12T02:22:28.433Z,13.20
2023-04-12T02:24:59.534Z,13.30
2023-04-12T02:27:29.084Z,13.20
2023-04-12T02:30:00.537Z,13.10
2023-04-12T02:32:54.051Z,13.10
2023-04-12T02:35:25.781Z,13.20
2023-04-12T02:38:00.217Z,13.20
2023-04-12T02:40:31.777Z,13.00
2023-04-12T02:43:01.347Z,13.10
2023-04-12T02:45:30.975Z,13.00
2023-04-12T02:48:01.449Z,13.00
2023-04-12T02:50:31.338Z,13.10
2023-04-12T02:53:14.353Z,13.00
2023-04-12T02:55:45.161Z,12.50
2023-04-12T02:58:14.769Z,11.90
2023-04-12T03:00:48.148Z,12.00
2023-04-12T03:03:19.371Z,11.40
2023-04-12T03:05:49.771Z,11.60
2023-04-12T03:08:20.404Z,11.70
2023-04-12T03:10:51.602Z,11.70
2023-04-12T03:13:21.453Z,12.00
2023-04-12T03:15:57.565Z,11.90
2023-04-12T03:18:29.277Z,12.00
2023-04-12T03:20:58.858Z,11.80
2023-04-12T03:23:28.412Z,11.80
2023-04-12T03:25:59.767Z,11.70
2023-04-12T03:28:33.926Z,11.80
2023-04-12T03:31:04.987Z,11.40
2023-04-12T03:33:39.794Z,11.50
2023-04-12T03:36:12.417Z,11.50
2023-04-12T03:38:42.354Z,11.20
2023-04-12T03:41:13.057Z,11.60
2023-04-12T03:43:42.736Z,11.20
2023-04-12T03:46:15.826Z,11.60
2023-04-12T03:48:46.070Z,11.60
2023-04-12T03:51:16.410Z,11.70
2023-04-12T03:53:46.655Z,11.40
2023-04-12T03:56:17.684Z,11.70
2023-04-12T03:58:48.953Z,11.80
2023-04-12T04:01:18.641Z,11.30
2023-04-12T04:03:48.927Z,11.30
2023-04-12T04:06:24.007Z,10.80
2023-04-12T04:08:55.527Z,10.90
2023-04-12T04:11:27.107Z,11.50
2023-04-12T04:13:58.540Z,11.00
2023-04-12T04:16:31.027Z,11.10
2023-04-12T04:19:01.875Z,11.30
2023-04-12T04:21:32.679Z,11.60
2023-04-12T04:24:02.830Z,11.80
2023-04-12T04:26:34.392Z,12.00
2023-04-12T04:29:06.193Z,11.90
2023-04-12T04:31:40.563Z,12.00
2023-04-12T04:34:13.837Z,12.00
2023-04-12T04:36:45.521Z,11.90
2023-04-12T04:39:17.404Z,12.00
2023-04-12T04:41:47.357Z,12.00
2023-04-12T04:44:21.960Z,12.00
2023-04-12T04:46:53.538Z,11.70
2023-04-12T04:49:23.086Z,11.70
2023-04-12T04:51:53.779Z,11.70
2023-04-12T04:54:24.275Z,11.60
2023-04-12T04:56:54.514Z,11.40
2023-04-12T04:59:24.556Z,11.70
2023-04-12T05:01:54.739Z,11.70
2023-04-12T05:04:24.769Z,11.70
2023-04-12T05:06:55.581Z,11.80
2023-04-12T05:09:26.981Z,11.80
2023-04-12T05:11:58.175Z,11.80
2023-04-12T05:14:37.698Z,11.70
2023-04-12T05:16:59.535Z,11.70
2023-04-12T05:19:29.932Z,11.70
2023-04-12T05:21:59.774Z,11.70
2023-04-12T05:24:29.732Z,11.70
2023-04-12T05:26:59.620Z,11.50
2023-04-12T05:29:29.151Z,11.50
2023-04-12T05:32:00.632Z,11.50
2023-04-12T05:34:31.148Z,11.50
2023-04-12T05:37:00.784Z,11.40
2023-04-12T05:39:35.062Z,11.60
2023-04-12T05:42:05.650Z,11.50
2023-04-12T05:44:37.778Z,11.50
2023-04-12T05:47:08.129Z,11.60
2023-04-12T05:49:39.424Z,11.70
2023-04-12T05:52:10.586Z,11.50
2023-04-12T05:54:42.003Z,11.20
2023-04-12T05:57:13.268Z,11.50
2023-04-12T05:59:43.128Z,11.60
2023-04-12T06:02:13.008Z,11.70
2023-04-12T06:04:50.644Z,11.50
2023-04-12T06:07:17.228Z,11.20
2023-04-12T06:09:47.568Z,10.70
2023-04-12T06:12:18.349Z,10.90
2023-04-12T06:14:49.029Z,11.20
2023-04-12T06:17:19.258Z,11.50
2023-04-12T06:19:49.115Z,11.40
2023-04-12T06:22:18.734Z,11.50
2023-04-12T06:24:49.180Z,11.50
2023-04-12T06:27:20.924Z,11.70
2023-04-12T06:29:51.068Z,11.70
2023-04-12T06:32:21.253Z,11.80
2023-04-12T06:34:51.717Z,11.90
2023-04-12T06:37:22.531Z,11.80
2023-04-12T06:39:52.879Z,11.80
2023-04-12T06:42:22.431Z,11.70
2023-04-12T06:44:51.902Z,11.70
2023-04-12T06:47:22.947Z,11.80
2023-04-12T06:49:55.581Z,12.00
2023-04-12T06:52:28.634Z,12.00
2023-04-12T06:54:58.763Z,12.20
2023-04-12T06:57:30.228Z,12.40
2023-04-12T06:59:59.774Z,12.30
2023-04-12T07:02:29.326Z,12.50
2023-04-12T07:04:59.242Z,12.80
2023-04-12T07:07:28.804Z,12.90
2023-04-12T07:10:00.276Z,13.00
2023-04-12T07:12:30.178Z,13.00
2023-04-12T07:14:59.887Z,12.90
2023-04-12T07:17:29.411Z,13.20
2023-04-12T07:19:59.690Z,13.30
2023-04-12T07:22:29.171Z,12.60
2023-04-12T07:24:58.791Z,12.80
2023-04-12T07:27:31.353Z,13.20
2023-04-12T07:30:00.841Z,13.10
2023-04-12T07:32:30.688Z,13.30
2023-04-12T07:35:00.797Z,13.60
2023-04-12T07:37:31.050Z,13.50
2023-04-12T07:40:00.858Z,13.40
2023-04-12T07:42:30.450Z,13.20
2023-04-12T07:45:00.115Z,13.10
2023-04-12T07:47:29.711Z,13.40
2023-04-12T07:49:59.319Z,13.20
2023-04-12T07:52:29.246Z,13.50
2023-04-12T07:54:58.787Z,13.60
2023-04-12T07:57:28.281Z,13.60
2023-04-12T07:59:57.877Z,13.70
2023-04-12T08:02:27.622Z,14.00
2023-04-12T08:04:57.914Z,13.90
2023-04-12T08:07:28.851Z,14.00
2023-04-12T08:09:58.322Z,14.30
2023-04-12T08:12:27.919Z,14.20
2023-04-12T08:14:57.474Z,14.30
2023-04-12T08:17:28.751Z,14.20
2023-04-12T08:19:58.244Z,14.20
2023-04-12T08:22:28.507Z,14.20
2023-04-12T08:24:58.326Z,14.30
2023-04-12T08:27:28.677Z,14.40
2023-04-12T08:29:59.607Z,14.20
2023-04-12T08:32:29.171Z,14.20
2023-04-12T08:34:59.017Z,14.50
2023-04-12T08:37:29.525Z,14.60
2023-04-12T08:40:01.041Z,14.50
2023-04-12T08:42:31.996Z,14.60
2023-04-12T08:45:04.552Z,14.80
2023-04-12T08:47:37.528Z,14.90
2023-04-12T08:50:14.569Z,14.80
2023-04-12T08:52:44.920Z,14.90
2023-04-12T08:55:14.434Z,15.00
2023-04-12T08:57:44.137Z,14.90
2023-04-12T09:00:15.258Z,14.90
2023-04-12T09:02:46.570Z,15.10
2023-04-12T09:05:17.075Z,15.10
2023-04-12T09:07:46.715Z,15.20
2023-04-12T09:10:33.510Z,15.20
2023-04-12T09:13:04.302Z,15.40
2023-04-12T09:15:35.814Z,15.50
2023-04-12T09:18:11.381Z,15.60
2023-04-12T09:20:41.217Z,15.50
2023-04-12T09:23:27.056Z,15.60
2023-04-12T09:25:56.676Z,15.50
2023-04-12T09:28:28.409Z,15.80
2023-04-12T09:31:00.829Z,16.00
2023-04-12T09:33:40.444Z,16.20
2023-04-12T09:36:13.733Z,16.10
2023-04-12T09:39:05.412Z,16.20
2023-04-12T09:41:36.759Z,16.30
2023-04-12T09:44:06.233Z,16.50
2023-04-12T09:46:36.975Z,16.60
2023-04-12T09:49:06.572Z,16.70
2023-04-12T09:51:37.623Z,17.00
2023-04-12T09:54:10.317Z,17.10
2023-04-12T09:56:42.310Z,17.20
2023-04-12T09:59:14.094Z,17.10
2023-04-12T10:01:44.501Z,17.20
2023-04-12T10:04:14.371Z,17.30
2023-04-12T10:06:46.126Z,17.20
2023-04-12T10:09:16.309Z,17.40
2023-04-12T10:11:47.930Z,17.20
2023-04-12T10:14:20.516Z,17.20
2023-04-12T10:16:51.292Z,17.40
2023-04-12T10:19:21.293Z,17.40
2023-04-12T10:21:51.067Z,17.30
2023-04-12T10:24:23.377Z,17.50
2023-04-12T10:26:56.470Z,17.60
2023-04-12T10:29:31.084Z,17.50
2023-04-12T10:32:20.779Z,17.60
2023-04-12T10:34:55.049Z,17.60
2023-04-12T10:37:26.205Z,17.70
2023-04-12T10:39:56.274Z,17.80
2023-04-12T10:42:31.200Z,17.70
2023-04-12T10:45:35.619Z,17.60
2023-04-12T10:48:07.161Z,17.80
2023-04-12T10:50:36.850Z,17.80
2023-04-12T10:53:19.762Z,17.70
2023-04-12T10:55:49.500Z,17.80
2023-04-12T10:58:52.783Z,17.80
2023-04-12T11:01:23.756Z,18.10
2023-04-12T11:04:21.362Z,18.00
2023-04-12T11:07:05.324Z,18.10
2023-04-12T11:09:56.460Z,17.90
2023-04-12T11:12:35.907Z,17.80
2023-04-12T11:15:07.753Z,17.80
2023-04-12T11:18:00.581Z,17.90
2023-04-12T11:20:30.100Z,17.90
2023-04-12T11:23:02.077Z,18.00
2023-04-12T11:25:32.372Z,18.00
2023-04-12T11:28:02.064Z,17.80
2023-04-12T11:30:33.950Z,17.80
2023-04-12T11:33:03.529Z,17.60
2023-04-12T11:35:33.150Z,17.40
2023-04-12T11:38:02.956Z,17.30
2023-04-12T11:40:32.671Z,17.30
2023-04-12T11:43:02.288Z,17.20
2023-04-12T11:45:32.374Z,17.10
2023-04-12T11:48:02.110Z,17.10
2023-04-12T11:50:32.810Z,17.00
2023-04-12T11:53:13.370Z,16.80
2023-04-12T11:55:45.080Z,16.80
2023-04-12T11:58:14.590Z,16.80
2023-04-12T12:00:47.152Z,16.80
2023-04-12T12:03:19.239Z,16.70
2023-04-12T12:05:51.013Z,16.70
2023-04-12T12:08:21.978Z,16.60
2023-04-12T12:11:03.984Z,16.50
2023-04-12T12:13:22.825Z,16.70
2023-04-12T12:15:56.105Z,16.60
2023-04-12T12:18:29.315Z,16.60
2023-04-12T12:20:59.164Z,16.60
2023-04-12T12:23:33.024Z,16.50
2023-04-12T12:26:17.073Z,16.40
2023-04-12T12:28:41.313Z,16.30
2023-04-12T12:31:14.325Z,16.30
2023-04-12T12:33:47.153Z,16.20
2023-04-12T12:36:17.961Z,16.20
2023-04-12T12:38:48.407Z,16.10
2023-04-12T12:41:23.486Z,15.80
2023-04-12T12:43:54.339Z,15.90
2023-04-12T12:46:24.529Z,15.90
2023-04-12T12:48:54.554Z,15.90
2023-04-12T12:51:24.192Z,15.90
2023-04-12T12:53:53.666Z,15.70
2023-04-12T12:56:23.154Z,15.30
2023-04-12T12:58:52.713Z,15.00
2023-04-12T13:01:22.206Z,14.70
2023-04-12T13:03:51.974Z,14.50
2023-04-12T13:06:21.989Z,13.70
2023-04-12T13:08:52.465Z,13.30
2023-04-12T13:11:22.141Z,12.90
2023-04-12T13:13:51.685Z,12.70
2023-04-12T13:16:22.105Z,12.60
2023-04-12T13:18:53.071Z,12.80
2023-04-12T13:21:24.327Z,12.70
2023-04-12T13:23:53.843Z,12.80
2023-04-12T13:26:24.964Z,12.60
2023-04-12T13:28:54.508Z,12.60
2023-04-12T13:31:23.979Z,12.40
2023-04-12T13:33:53.466Z,12.40
2023-04-12T13:36:23.417Z,12.40
2023-04-12T13:38:52.979Z,12.10
2023-04-12T13:41:23.449Z,12.30
2023-04-12T13:43:53.002Z,12.20
2023-04-12T13:46:22.522Z,12.20
2023-04-12T13:48:52.240Z,12.10
2023-04-12T13:51:23.438Z,12.10
2023-04-12T13:53:53.640Z,12.20
2023-04-12T13:56:23.093Z,12.20
2023-04-12T13:58:52.756Z,12.00
2023-04-12T14:01:24.191Z,12.00
2023-04-12T14:03:57.313Z,12.00
2023-04-12T14:06:27.387Z,11.90
2023-04-12T14:08:57.629Z,12.00
2023-04-12T14:11:27.535Z,12.00
2023-04-12T14:13:57.016Z,11.80
2023-04-12T14:16:26.989Z,11.70
2023-04-12T14:18:56.613Z,11.70
2023-04-12T14:21:28.438Z,11.70
2023-04-12T14:23:58.630Z,11.90
2023-04-12T14:26:28.618Z,11.90
2023-04-12T14:28:58.250Z,12.00
2023-04-12T14:31:28.349Z,12.10
2023-04-12T14:33:58.161Z,11.90
2023-04-12T14:36:28.045Z,11.80
2023-04-12T14:38:58.292Z,11.70
2023-04-12T14:41:28.375Z,11.70
2023-04-12T14:44:02.007Z,11.80
2023-04-12T14:46:32.008Z,11.90
2023-04-12T14:49:01.861Z,11.90
2023-04-12T14:51:32.186Z,11.90
2023-04-12T14:54:02.112Z,12.00
2023-04-12T14:56:33.496Z,11.90
2023-04-12T14:59:03.420Z,11.90
2023-04-12T15:01:33.978Z,11.90
2023-04-12T15:04:05.565Z,11.90
2023-04-12T15:06:37.303Z,12.10
2023-04-12T15:09:07.491Z,12.10
2023-04-12T15:11:38.491Z,12.20
2023-04-12T15:14:08.812Z,12.10
2023-04-12T15:16:39.993Z,12.10
2023-04-12T15:19:16.536Z,12.20
2023-04-12T15:21:40.632Z,12.00
2023-04-12T15:24:10.647Z,11.90
2023-04-12T15:26:40.132Z,11.80
2023-04-12T15:29:10.227Z,11.60
2023-04-12T15:31:39.746Z,11.80
2023-04-12T15:34:09.273Z,11.70
2023-04-12T15:36:41.154Z,11.80
2023-04-12T15:39:12.512Z,11.90
2023-04-12T15:41:43.737Z,11.70
2023-04-12T15:44:13.985Z,11.70
2023-04-12T15:46:43.750Z,11.70
2023-04-12T15:49:13.892Z,11.60
2023-04-12T15:51:43.392Z,11.70
2023-04-12T15:54:15.330Z,11.70
2023-04-12T15:56:46.223Z,11.60
2023-04-12T15:59:17.382Z,11.70
2023-04-12T16:01:49.799Z,11.80
2023-04-12T16:04:20.180Z,11.70
2023-04-12T16:06:50.584Z,11.80
2023-04-12T16:09:22.332Z,11.80
2023-04-12T16:11:52.591Z,11.70
2023-04-12T16:14:23.280Z,11.90
2023-04-12T16:16:52.764Z,11.80
2023-04-12T16:19:22.618Z,11.90
2023-04-12T16:21:52.564Z,12.10
2023-04-12T16:24:22.838Z,12.20
2023-04-12T16:26:53.470Z,12.30
2023-04-12T16:29:23.414Z,12.20
2023-04-12T16:31:53.448Z,12.10
2023-04-12T16:34:23.337Z,12.10
2023-04-12T16:36:53.254Z,12.00
2023-04-12T16:39:23.122Z,12.00
2023-04-12T16:41:52.591Z,11.90
2023-04-12T16:44:22.372Z,11.90
2023-04-12T16:46:51.937Z,11.90
2023-04-12T16:49:22.480Z,11.90
2023-04-12T16:51:52.475Z,11.80
2023-04-12T16:54:21.957Z,11.80
2023-04-12T16:56:53.876Z,11.90
2023-04-12T16:59:23.343Z,12.00
2023-04-12T17:01:53.651Z,12.00
2023-04-12T17:04:23.820Z,12.00
2023-04-12T17:06:53.490Z,12.10
2023-04-12T17:09:23.525Z,12.20
2023-04-12T17:11:53.049Z,12.30
2023-04-12T17:14:22.524Z,12.30
2023-04-12T17:16:52.001Z,12.10
2023-04-12T17:19:22.108Z,12.00
2023-04-12T17:21:53.032Z,12.00
2023-04-12T17:24:25.227Z,11.80
2023-04-12T17:26:54.271Z,11.90
2023-04-12T17:29:23.806Z,11.90
2023-04-12T17:31:55.027Z,11.80
2023-04-12T17:34:26.390Z,11.70
2023-04-12T17:36:55.960Z,11.70
2023-04-12T17:39:25.531Z,11.60
2023-04-12T17:41:55.153Z,11.50
2023-04-12T17:44:24.661Z,11.50
2023-04-12T17:46:54.360Z,11.40
2023-04-12T17:49:25.768Z,11.50
2023-04-12T17:51:55.363Z,11.50
2023-04-12T17:54:25.049Z,11.50
2023-04-12T17:56:54.644Z,11.50
2023-04-12T17:59:25.469Z,11.40
2023-04-12T18:01:55.923Z,11.40
2023-04-12T18:04:27.799Z,11.30
2023-04-12T18:06:59.017Z,11.30
2023-04-12T18:09:28.553Z,11.40
2023-04-12T18:11:58.435Z,11.50
2023-04-12T18:14:28.970Z,11.50
2023-04-12T18:16:58.618Z,11.30
2023-04-12T18:19:28.115Z,11.40
2023-04-12T18:21:58.443Z,11.30
2023-04-12T18:24:28.165Z,11.10
2023-04-12T18:26:59.922Z,10.90
2023-04-12T18:29:32.743Z,10.90
2023-04-12T18:32:02.485Z,10.80
2023-04-12T18:34:32.175Z,10.70
2023-04-12T18:37:03.339Z,10.60
2023-04-12T18:39:34.695Z,10.60
2023-04-12T18:42:04.415Z,10.40
2023-04-12T18:44:34.784Z,10.40
2023-04-12T18:47:05.435Z,10.40
2023-04-12T18:49:35.367Z,10.30
2023-04-12T18:52:05.307Z,10.30
2023-04-12T18:54:34.844Z,10.30
2023-04-12T18:57:04.463Z,10.50
2023-04-12T18:59:34.782Z,10.40
2023-04-12T19:02:04.375Z,10.40
2023-04-12T19:04:35.899Z,10.40
2023-04-12T19:07:05.590Z,10.40
2023-04-12T19:09:35.144Z,10.40
2023-04-12T19:12:05.804Z,10.40
2023-04-12T19:14:35.769Z,10.40
2023-04-12T19:17:05.561Z,10.40
2023-04-12T19:19:34.993Z,10.40
2023-04-12T19:22:05.616Z,10.30
2023-04-12T19:24:35.112Z,10.30
2023-04-12T19:27:04.629Z,10.40
2023-04-12T19:29:34.225Z,10.40
2023-04-12T19:32:06.322Z,10.30
2023-04-12T19:34:36.023Z,10.30
2023-04-12T19:37:06.218Z,10.30
2023-04-12T19:39:37.932Z,10.30
2023-04-12T19:42:08.162Z,10.30
2023-04-12T19:44:39.827Z,10.30
2023-04-12T19:47:08.981Z,10.40
2023-04-12T19:49:39.702Z,10.50
2023-04-12T19:52:09.901Z,10.40
2023-04-12T19:54:39.955Z,10.40
2023-04-12T19:57:09.538Z,10.30
2023-04-12T19:59:40.185Z,10.30
2023-04-12T20:02:10.838Z,10.40
2023-04-12T20:04:40.355Z,10.40
2023-04-12T20:07:09.942Z,10.30
2023-04-12T20:09:40.313Z,10.30
2023-04-12T20:12:10.757Z,10.20
2023-04-12T20:14:41.320Z,10.20
2023-04-12T20:17:12.152Z,10.20
2023-04-12T20:19:42.441Z,10.00
2023-04-12T20:22:12.896Z,10.10
2023-04-12T20:24:42.428Z,10.10
2023-04-12T20:27:13.668Z,10.20
2023-04-12T20:29:44.983Z,10.00
2023-04-12T20:32:16.497Z,10.20
2023-04-12T20:34:47.532Z,10.10
2023-04-12T20:37:18.292Z,10.00
2023-04-12T20:39:47.779Z,10.10
2023-04-12T20:42:18.929Z,10.00
2023-04-12T20:44:49.661Z,10.00
2023-04-12T20:47:21.366Z,10.00
2023-04-12T20:49:52.539Z,10.00
2023-04-12T20:52:23.201Z,10.00
2023-04-12T20:54:53.453Z,10.00
2023-04-12T20:57:23.820Z,10.00
2023-04-12T20:59:53.577Z,10.00
2023-04-12T21:02:23.249Z,9.90
2023-04-12T21:04:53.333Z,9.90
2023-04-12T21:07:24.441Z,9.90
2023-04-12T21:09:54.040Z,9.90
2023-04-12T21:12:23.502Z,9.80
2023-04-12T21:14:53.296Z,9.80
2023-04-12T21:17:23.818Z,9.70
2023-04-12T21:19:53.407Z,9.70
2023-04-12T21:22:22.829Z,9.60
2023-04-12T21:24:52.355Z,9.60
2023-04-12T21:27:22.036Z,9.60
2023-04-12T21:29:51.612Z,9.70
2023-04-12T21:32:21.210Z,9.60
2023-04-12T21:34:51.150Z,9.50
2023-04-12T21:37:22.435Z,9.50
2023-04-12T21:39:52.661Z,9.50
2023-04-12T21:42:22.164Z,9.50
2023-04-12T21:44:51.788Z,9.50
2023-04-12T21:47:21.307Z,9.50
2023-04-12T21:49:55.792Z,9.40
2023-04-12T21:52:26.470Z,9.30
2023-04-12T21:54:56.005Z,9.40
2023-04-12T21:57:25.502Z,9.30
2023-04-12T21:59:55.197Z,9.20
2023-04-12T22:02:28.695Z,9.20
2023-04-12T22:04:58.613Z,9.20
2023-04-12T22:07:28.964Z,9.20
2023-04-12T22:09:58.737Z,9.20
2023-04-12T22:12:28.351Z,9.20
2023-04-12T22:14:58.706Z,9.10
2023-04-12T22:17:28.768Z,9.10
2023-04-12T22:20:00.033Z,9.00
2023-04-12T22:22:30.578Z,9.00
2023-04-12T22:25:00.456Z,9.00
2023-04-12T22:27:29.968Z,8.90
2023-04-12T22:30:00.764Z,8.90
2023-04-12T22:32:32.565Z,9.00
2023-04-12T22:35:08.457Z,8.90
2023-04-12T22:37:35.388Z,9.00
2023-04-12T22:40:12.728Z,8.90
2023-04-12T22:42:47.609Z,8.90
2023-04-12T22:45:18.840Z,8.80
2023-04-12T22:47:48.565Z,8.70
2023-04-12T22:50:19.993Z,8.70
2023-04-12T22:52:50.635Z,8.60
2023-04-12T22:55:22.125Z,8.60
2023-04-12T22:57:51.905Z,8.60
2023-04-12T23:00:23.084Z,8.50
2023-04-12T23:02:54.402Z,8.60
2023-04-12T23:05:26.263Z,8.60
2023-04-12T23:07:56.513Z,8.60
2023-04-12T23:10:25.991Z,8.50
2023-04-12T23:12:56.098Z,8.40
2023-04-12T23:15:26.527Z,8.50
2023-04-12T23:17:56.080Z,8.50
2023-04-12T23:20:25.665Z,8.40
2023-04-12T23:22:58.550Z,8.40
2023-04-12T23:25:40.126Z,8.40
2023-04-12T23:28:14.947Z,8.60
2023-04-12T23:30:49.843Z,8.50
2023-04-12T23:33:22.648Z,8.60
2023-04-12T23:35:53.598Z,8.50
2023-04-12T23:38:25.336Z,8.50
2023-04-12T23:40:54.879Z,8.50
2023-04-12T23:43:26.593Z,8.50
2023-04-12T23:45:57.876Z,8.60
2023-04-12T23:48:27.488Z,8.60
2023-04-12T23:50:57.504Z,8.60
2023-04-12T23:53:27.075Z,8.50
2023-04-12T23:55:57.514Z,8.60
2023-04-12T23:58:27.018Z,8.20
